sensor_id;sensor_type;location;lat;lon;timestamp;P1;durP1;ratioP1;P2;durP2;ratioP2
20110;SDS011;10216;42.658;23.248;2022-10-28T00:01:12;4.23;;;2.83;;
20110;SDS011;10216;42.658;23.248;2022-10-28T00:03:46;3.27;;;2.57;;
20110;SDS011;10216;42.658;23.248;2022-10-28T00:06:21;3.87;;;2.57;;
20110;SDS011;10216;42.658;23.248;2022-10-28T00:08:48;4.80;;;2.43;;
20110;SDS011;10216;42.658;23.248;2022-10-28T00:11:19;3.00;;;2.70;;
20110;SDS011;10216;42.658;23.248;2022-10-28T00:13:49;2.97;;;2.47;;
20110;SDS011;10216;42.658;23.248;2022-10-28T00:16:18;3.00;;;2.50;;
20110;SDS011;10216;42.658;23.248;2022-10-28T00:18:46;4.93;;;2.70;;
20110;SDS011;10216;42.658;23.248;2022-10-28T00:21:16;3.73;;;2.57;;
20110;SDS011;10216;42.658;23.248;2022-10-28T00:23:43;3.07;;;2.43;;
20110;SDS011;10216;42.658;23.248;2022-10-28T00:26:10;7.33;;;2.90;;
20110;SDS011;10216;42.658;23.248;2022-10-28T00:28:39;3.43;;;2.77;;
20110;SDS011;10216;42.658;23.248;2022-10-28T00:31:13;4.00;;;2.90;;
20110;SDS011;10216;42.658;23.248;2022-10-28T00:33:39;4.80;;;2.60;;
20110;SDS011;10216;42.658;23.248;2022-10-28T00:38:38;3.07;;;2.40;;
20110;SDS011;10216;42.658;23.248;2022-10-28T00:41:04;3.67;;;2.70;;
20110;SDS011;10216;42.658;23.248;2022-10-28T00:43:38;6.63;;;3.10;;
20110;SDS011;10216;42.658;23.248;2022-10-28T00:46:12;3.67;;;2.70;;
20110;SDS011;10216;42.658;23.248;2022-10-28T00:48:45;3.73;;;2.73;;
20110;SDS011;10216;42.658;23.248;2022-10-28T00:51:14;3.60;;;2.57;;
20110;SDS011;10216;42.658;23.248;2022-10-28T00:53:43;3.40;;;2.40;;
20110;SDS011;10216;42.658;23.248;2022-10-28T00:56:12;4.97;;;2.60;;
20110;SDS011;10216;42.658;23.248;2022-10-28T00:58:39;3.83;;;2.90;;
20110;SDS011;10216;42.658;23.248;2022-10-28T01:01:05;3.50;;;2.77;;
20110;SDS011;10216;42.658;23.248;2022-10-28T01:03:31;4.60;;;2.90;;
20110;SDS011;10216;42.658;23.248;2022-10-28T01:05:57;5.80;;;3.07;;
20110;SDS011;10216;42.658;23.248;2022-10-28T01:08:22;4.30;;;2.87;;
20110;SDS011;10216;42.658;23.248;2022-10-28T01:13:49;4.00;;;2.60;;
20110;SDS011;10216;42.658;23.248;2022-10-28T01:33:23;3.20;;;2.60;;
20110;SDS011;10216;42.658;23.248;2022-10-28T01:35:56;3.40;;;2.60;;
20110;SDS011;10216;42.658;23.248;2022-10-28T01:39:33;6.13;;;2.90;;
20110;SDS011;10216;42.658;23.248;2022-10-28T01:43:57;4.33;;;3.23;;
20110;SDS011;10216;42.658;23.248;2022-10-28T01:46:34;5.47;;;3.20;;
20110;SDS011;10216;42.658;23.248;2022-10-28T01:49:06;5.60;;;3.43;;
20110;SDS011;10216;42.658;23.248;2022-10-28T01:51:57;4.07;;;3.17;;
20110;SDS011;10216;42.658;23.248;2022-10-28T01:54:28;3.83;;;2.90;;
20110;SDS011;10216;42.658;23.248;2022-10-28T01:56:59;3.37;;;2.97;;
20110;SDS011;10216;42.658;23.248;2022-10-28T01:59:28;6.80;;;3.20;;
20110;SDS011;10216;42.658;23.248;2022-10-28T02:01:55;5.33;;;2.80;;
20110;SDS011;10216;42.658;23.248;2022-10-28T02:04:21;5.03;;;3.07;;
20110;SDS011;10216;42.658;23.248;2022-10-28T02:06:49;5.23;;;3.10;;
20110;SDS011;10216;42.658;23.248;2022-10-28T02:09:20;5.40;;;3.37;;
20110;SDS011;10216;42.658;23.248;2022-10-28T02:25:37;4.80;;;2.90;;
20110;SDS011;10216;42.658;23.248;2022-10-28T02:28:14;7.20;;;3.00;;
20110;SDS011;10216;42.658;23.248;2022-10-28T02:33:23;5.33;;;2.83;;
20110;SDS011;10216;42.658;23.248;2022-10-28T02:35:56;3.40;;;2.60;;
20110;SDS011;10216;42.658;23.248;2022-10-28T02:38:49;4.17;;;2.83;;
20110;SDS011;10216;42.658;23.248;2022-10-28T02:44:06;5.13;;;3.30;;
20110;SDS011;10216;42.658;23.248;2022-10-28T02:46:35;7.60;;;3.10;;
20110;SDS011;10216;42.658;23.248;2022-10-28T02:49:09;4.60;;;2.63;;
20110;SDS011;10216;42.658;23.248;2022-10-28T02:51:57;3.93;;;2.80;;
20110;SDS011;10216;42.658;23.248;2022-10-28T02:54:31;4.07;;;2.77;;
20110;SDS011;10216;42.658;23.248;2022-10-28T02:57:04;3.83;;;2.57;;
20110;SDS011;10216;42.658;23.248;2022-10-28T02:59:34;3.63;;;2.80;;
20110;SDS011;10216;42.658;23.248;2022-10-28T03:01:59;3.70;;;2.60;;
20110;SDS011;10216;42.658;23.248;2022-10-28T03:04:25;3.70;;;2.80;;
20110;SDS011;10216;42.658;23.248;2022-10-28T03:06:50;3.87;;;3.00;;
20110;SDS011;10216;42.658;23.248;2022-10-28T03:09:16;4.50;;;2.90;;
20110;SDS011;10216;42.658;23.248;2022-10-28T03:11:41;7.07;;;3.30;;
20110;SDS011;10216;42.658;23.248;2022-10-28T03:14:06;6.37;;;3.17;;
20110;SDS011;10216;42.658;23.248;2022-10-28T03:16:32;4.87;;;3.07;;
20110;SDS011;10216;42.658;23.248;2022-10-28T03:18:57;4.50;;;3.43;;
20110;SDS011;10216;42.658;23.248;2022-10-28T03:21:22;4.83;;;3.47;;
20110;SDS011;10216;42.658;23.248;2022-10-28T03:23:48;4.87;;;3.20;;
20110;SDS011;10216;42.658;23.248;2022-10-28T03:26:13;6.97;;;3.00;;
20110;SDS011;10216;42.658;23.248;2022-10-28T03:28:38;3.87;;;2.60;;
20110;SDS011;10216;42.658;23.248;2022-10-28T03:31:04;4.77;;;3.27;;
20110;SDS011;10216;42.658;23.248;2022-10-28T03:33:29;4.17;;;3.27;;
20110;SDS011;10216;42.658;23.248;2022-10-28T03:35:55;6.93;;;3.13;;
20110;SDS011;10216;42.658;23.248;2022-10-28T03:38:20;4.43;;;3.20;;
20110;SDS011;10216;42.658;23.248;2022-10-28T03:40:48;6.93;;;3.40;;
20110;SDS011;10216;42.658;23.248;2022-10-28T03:43:15;3.53;;;2.60;;
20110;SDS011;10216;42.658;23.248;2022-10-28T03:45:41;3.97;;;2.93;;
20110;SDS011;10216;42.658;23.248;2022-10-28T03:48:07;5.30;;;2.87;;
20110;SDS011;10216;42.658;23.248;2022-10-28T03:50:32;3.93;;;3.10;;
20110;SDS011;10216;42.658;23.248;2022-10-28T03:52:58;4.67;;;3.53;;
20110;SDS011;10216;42.658;23.248;2022-10-28T03:55:23;4.10;;;3.10;;
20110;SDS011;10216;42.658;23.248;2022-10-28T03:57:50;6.70;;;2.83;;
20110;SDS011;10216;42.658;23.248;2022-10-28T04:00:18;6.43;;;3.43;;
20110;SDS011;10216;42.658;23.248;2022-10-28T04:02:50;6.90;;;3.50;;
20110;SDS011;10216;42.658;23.248;2022-10-28T04:05:17;5.80;;;3.87;;
20110;SDS011;10216;42.658;23.248;2022-10-28T04:07:43;4.80;;;3.43;;
20110;SDS011;10216;42.658;23.248;2022-10-28T04:10:09;7.23;;;3.70;;
20110;SDS011;10216;42.658;23.248;2022-10-28T04:12:34;10.83;;;3.20;;
20110;SDS011;10216;42.658;23.248;2022-10-28T04:15:00;7.50;;;3.37;;
20110;SDS011;10216;42.658;23.248;2022-10-28T04:17:27;5.30;;;3.47;;
20110;SDS011;10216;42.658;23.248;2022-10-28T04:19:53;4.27;;;3.50;;
20110;SDS011;10216;42.658;23.248;2022-10-28T04:22:18;4.43;;;3.47;;
20110;SDS011;10216;42.658;23.248;2022-10-28T04:24:43;6.20;;;3.30;;
20110;SDS011;10216;42.658;23.248;2022-10-28T04:27:09;7.50;;;3.30;;
20110;SDS011;10216;42.658;23.248;2022-10-28T04:29:34;4.70;;;3.37;;
20110;SDS011;10216;42.658;23.248;2022-10-28T04:32:00;7.20;;;3.47;;
20110;SDS011;10216;42.658;23.248;2022-10-28T04:34:25;5.07;;;3.50;;
20110;SDS011;10216;42.658;23.248;2022-10-28T04:36:51;5.10;;;3.50;;
20110;SDS011;10216;42.658;23.248;2022-10-28T04:39:16;6.80;;;4.03;;
20110;SDS011;10216;42.658;23.248;2022-10-28T04:41:42;6.83;;;3.70;;
20110;SDS011;10216;42.658;23.248;2022-10-28T04:44:08;29.43;;;5.10;;
20110;SDS011;10216;42.658;23.248;2022-10-28T04:46:33;7.23;;;4.10;;
20110;SDS011;10216;42.658;23.248;2022-10-28T04:48:59;4.73;;;4.10;;
20110;SDS011;10216;42.658;23.248;2022-10-28T04:51:24;5.37;;;4.20;;
20110;SDS011;10216;42.658;23.248;2022-10-28T04:53:49;4.63;;;3.70;;
20110;SDS011;10216;42.658;23.248;2022-10-28T04:56:15;7.37;;;4.07;;
20110;SDS011;10216;42.658;23.248;2022-10-28T04:58:40;6.17;;;3.93;;
20110;SDS011;10216;42.658;23.248;2022-10-28T05:01:06;7.17;;;4.27;;
20110;SDS011;10216;42.658;23.248;2022-10-28T05:03:33;5.93;;;3.90;;
20110;SDS011;10216;42.658;23.248;2022-10-28T05:05:58;8.07;;;4.53;;
20110;SDS011;10216;42.658;23.248;2022-10-28T05:08:23;9.80;;;5.20;;
20110;SDS011;10216;42.658;23.248;2022-10-28T05:10:51;7.00;;;3.93;;
20110;SDS011;10216;42.658;23.248;2022-10-28T05:13:17;4.30;;;3.70;;
20110;SDS011;10216;42.658;23.248;2022-10-28T05:15:42;5.20;;;3.77;;
20110;SDS011;10216;42.658;23.248;2022-10-28T05:18:08;6.73;;;4.20;;
20110;SDS011;10216;42.658;23.248;2022-10-28T05:20:36;5.77;;;4.00;;
20110;SDS011;10216;42.658;23.248;2022-10-28T05:23:01;7.47;;;4.07;;
20110;SDS011;10216;42.658;23.248;2022-10-28T05:25:27;6.37;;;4.17;;
20110;SDS011;10216;42.658;23.248;2022-10-28T05:27:52;6.97;;;4.10;;
20110;SDS011;10216;42.658;23.248;2022-10-28T05:30:18;7.57;;;5.03;;
20110;SDS011;10216;42.658;23.248;2022-10-28T05:32:44;7.53;;;4.73;;
20110;SDS011;10216;42.658;23.248;2022-10-28T05:35:09;4.90;;;3.67;;
20110;SDS011;10216;42.658;23.248;2022-10-28T05:37:35;5.97;;;3.40;;
20110;SDS011;10216;42.658;23.248;2022-10-28T05:40:01;7.37;;;3.90;;
20110;SDS011;10216;42.658;23.248;2022-10-28T05:42:28;8.97;;;3.67;;
20110;SDS011;10216;42.658;23.248;2022-10-28T05:44:53;6.17;;;3.73;;
20110;SDS011;10216;42.658;23.248;2022-10-28T05:47:19;5.60;;;3.57;;
20110;SDS011;10216;42.658;23.248;2022-10-28T05:49:44;5.60;;;3.90;;
20110;SDS011;10216;42.658;23.248;2022-10-28T05:52:09;5.07;;;3.60;;
20110;SDS011;10216;42.658;23.248;2022-10-28T05:54:35;7.10;;;3.47;;
20110;SDS011;10216;42.658;23.248;2022-10-28T05:57:00;5.13;;;3.57;;
20110;SDS011;10216;42.658;23.248;2022-10-28T05:59:25;5.33;;;3.10;;
20110;SDS011;10216;42.658;23.248;2022-10-28T06:01:51;4.60;;;3.37;;
20110;SDS011;10216;42.658;23.248;2022-10-28T06:04:16;6.73;;;3.67;;
20110;SDS011;10216;42.658;23.248;2022-10-28T06:06:41;6.30;;;3.60;;
20110;SDS011;10216;42.658;23.248;2022-10-28T06:09:07;3.87;;;3.43;;
20110;SDS011;10216;42.658;23.248;2022-10-28T06:11:33;5.00;;;3.37;;
20110;SDS011;10216;42.658;23.248;2022-10-28T06:13:59;10.07;;;3.53;;
20110;SDS011;10216;42.658;23.248;2022-10-28T06:16:24;7.03;;;4.37;;
20110;SDS011;10216;42.658;23.248;2022-10-28T06:18:49;13.23;;;7.37;;
20110;SDS011;10216;42.658;23.248;2022-10-28T06:21:15;9.07;;;6.33;;
20110;SDS011;10216;42.658;23.248;2022-10-28T06:23:40;13.47;;;8.03;;
20110;SDS011;10216;42.658;23.248;2022-10-28T06:26:05;17.03;;;8.27;;
20110;SDS011;10216;42.658;23.248;2022-10-28T06:28:31;18.67;;;10.23;;
20110;SDS011;10216;42.658;23.248;2022-10-28T06:31:06;17.50;;;10.37;;
20110;SDS011;10216;42.658;23.248;2022-10-28T06:33:35;13.97;;;9.63;;
20110;SDS011;10216;42.658;23.248;2022-10-28T06:36:01;15.70;;;10.37;;
20110;SDS011;10216;42.658;23.248;2022-10-28T06:38:26;16.07;;;9.53;;
20110;SDS011;10216;42.658;23.248;2022-10-28T06:40:57;18.03;;;10.83;;
20110;SDS011;10216;42.658;23.248;2022-10-28T06:43:25;19.00;;;10.50;;
20110;SDS011;10216;42.658;23.248;2022-10-28T06:45:51;14.57;;;9.77;;
20110;SDS011;10216;42.658;23.248;2022-10-28T06:48:20;23.93;;;10.40;;
20110;SDS011;10216;42.658;23.248;2022-10-28T06:50:46;13.03;;;10.23;;
20110;SDS011;10216;42.658;23.248;2022-10-28T06:53:11;20.23;;;11.10;;
20110;SDS011;10216;42.658;23.248;2022-10-28T06:55:37;25.90;;;11.33;;
20110;SDS011;10216;42.658;23.248;2022-10-28T06:58:02;21.47;;;10.60;;
20110;SDS011;10216;42.658;23.248;2022-10-28T07:00:28;16.30;;;10.10;;
20110;SDS011;10216;42.658;23.248;2022-10-28T07:02:55;36.17;;;20.70;;
20110;SDS011;10216;42.658;23.248;2022-10-28T07:05:21;28.33;;;16.90;;
20110;SDS011;10216;42.658;23.248;2022-10-28T07:07:48;16.50;;;10.97;;
20110;SDS011;10216;42.658;23.248;2022-10-28T07:10:13;17.37;;;10.80;;
20110;SDS011;10216;42.658;23.248;2022-10-28T07:12:39;17.07;;;10.17;;
20110;SDS011;10216;42.658;23.248;2022-10-28T07:15:04;21.70;;;10.40;;
20110;SDS011;10216;42.658;23.248;2022-10-28T07:20:52;20.13;;;10.63;;
20110;SDS011;10216;42.658;23.248;2022-10-28T07:23:18;22.97;;;10.70;;
20110;SDS011;10216;42.658;23.248;2022-10-28T07:25:50;23.33;;;12.80;;
20110;SDS011;10216;42.658;23.248;2022-10-28T07:28:16;18.57;;;10.97;;
20110;SDS011;10216;42.658;23.248;2022-10-28T07:30:42;19.70;;;10.27;;
20110;SDS011;10216;42.658;23.248;2022-10-28T07:33:07;15.80;;;10.83;;
20110;SDS011;10216;42.658;23.248;2022-10-28T07:35:32;15.37;;;11.90;;
20110;SDS011;10216;42.658;23.248;2022-10-28T07:37:58;20.93;;;11.67;;
20110;SDS011;10216;42.658;23.248;2022-10-28T07:40:24;19.20;;;12.10;;
20110;SDS011;10216;42.658;23.248;2022-10-28T07:42:50;21.60;;;12.40;;
20110;SDS011;10216;42.658;23.248;2022-10-28T07:45:16;21.10;;;12.03;;
20110;SDS011;10216;42.658;23.248;2022-10-28T07:47:42;16.93;;;10.83;;
20110;SDS011;10216;42.658;23.248;2022-10-28T07:50:08;16.83;;;10.73;;
20110;SDS011;10216;42.658;23.248;2022-10-28T07:52:36;20.13;;;11.70;;
20110;SDS011;10216;42.658;23.248;2022-10-28T07:55:02;18.30;;;10.60;;
20110;SDS011;10216;42.658;23.248;2022-10-28T07:57:28;17.07;;;9.53;;
20110;SDS011;10216;42.658;23.248;2022-10-28T07:59:54;15.70;;;9.90;;
20110;SDS011;10216;42.658;23.248;2022-10-28T08:02:20;17.53;;;10.03;;
20110;SDS011;10216;42.658;23.248;2022-10-28T08:04:47;11.07;;;8.63;;
20110;SDS011;10216;42.658;23.248;2022-10-28T08:07:13;12.43;;;8.67;;
20110;SDS011;10216;42.658;23.248;2022-10-28T08:09:39;12.83;;;8.70;;
20110;SDS011;10216;42.658;23.248;2022-10-28T08:12:05;13.93;;;9.20;;
20110;SDS011;10216;42.658;23.248;2022-10-28T08:14:31;17.40;;;9.73;;
20110;SDS011;10216;42.658;23.248;2022-10-28T08:16:57;14.90;;;8.77;;
20110;SDS011;10216;42.658;23.248;2022-10-28T08:19:22;18.43;;;9.50;;
20110;SDS011;10216;42.658;23.248;2022-10-28T08:21:47;15.00;;;9.90;;
20110;SDS011;10216;42.658;23.248;2022-10-28T08:24:13;15.07;;;9.97;;
20110;SDS011;10216;42.658;23.248;2022-10-28T08:26:38;17.70;;;10.10;;
20110;SDS011;10216;42.658;23.248;2022-10-28T08:29:03;20.30;;;10.17;;
20110;SDS011;10216;42.658;23.248;2022-10-28T08:31:30;20.70;;;11.10;;
20110;SDS011;10216;42.658;23.248;2022-10-28T08:33:57;17.90;;;10.90;;
20110;SDS011;10216;42.658;23.248;2022-10-28T08:36:22;16.60;;;10.50;;
20110;SDS011;10216;42.658;23.248;2022-10-28T08:38:47;17.27;;;10.63;;
20110;SDS011;10216;42.658;23.248;2022-10-28T08:49:29;16.97;;;11.43;;
20110;SDS011;10216;42.658;23.248;2022-10-28T08:55:05;19.23;;;11.23;;
20110;SDS011;10216;42.658;23.248;2022-10-28T08:57:54;16.83;;;11.50;;
20110;SDS011;10216;42.658;23.248;2022-10-28T09:00:25;20.47;;;12.13;;
20110;SDS011;10216;42.658;23.248;2022-10-28T09:05:40;18.30;;;11.70;;
20110;SDS011;10216;42.658;23.248;2022-10-28T09:08:24;25.00;;;12.23;;
20110;SDS011;10216;42.658;23.248;2022-10-28T09:13:30;18.43;;;11.77;;
20110;SDS011;10216;42.658;23.248;2022-10-28T09:16:10;20.83;;;10.97;;
20110;SDS011;10216;42.658;23.248;2022-10-28T09:18:52;17.33;;;10.67;;
20110;SDS011;10216;42.658;23.248;2022-10-28T09:24:14;18.77;;;11.03;;
20110;SDS011;10216;42.658;23.248;2022-10-28T09:26:49;16.87;;;10.07;;
20110;SDS011;10216;42.658;23.248;2022-10-28T09:32:13;17.23;;;10.37;;
20110;SDS011;10216;42.658;23.248;2022-10-28T09:35:35;19.73;;;9.53;;
20110;SDS011;10216;42.658;23.248;2022-10-28T09:37:44;15.60;;;8.87;;
20110;SDS011;10216;42.658;23.248;2022-10-28T09:40:16;23.67;;;9.30;;
20110;SDS011;10216;42.658;23.248;2022-10-28T09:45:30;16.30;;;9.13;;
20110;SDS011;10216;42.658;23.248;2022-10-28T09:48:04;17.57;;;9.23;;
20110;SDS011;10216;42.658;23.248;2022-10-28T09:50:48;15.47;;;6.53;;
20110;SDS011;10216;42.658;23.248;2022-10-28T09:53:28;13.77;;;6.97;;
20110;SDS011;10216;42.658;23.248;2022-10-28T09:55:58;12.17;;;6.73;;
20110;SDS011;10216;42.658;23.248;2022-10-28T09:58:23;12.30;;;6.87;;
20110;SDS011;10216;42.658;23.248;2022-10-28T10:00:49;15.30;;;7.20;;
20110;SDS011;10216;42.658;23.248;2022-10-28T10:03:17;9.10;;;5.97;;
20110;SDS011;10216;42.658;23.248;2022-10-28T10:05:43;10.10;;;5.87;;
20110;SDS011;10216;42.658;23.248;2022-10-28T10:08:14;15.57;;;9.33;;
20110;SDS011;10216;42.658;23.248;2022-10-28T10:13:12;17.50;;;8.83;;
20110;SDS011;10216;42.658;23.248;2022-10-28T10:15:50;14.80;;;8.70;;
20110;SDS011;10216;42.658;23.248;2022-10-28T10:18:21;13.27;;;7.83;;
20110;SDS011;10216;42.658;23.248;2022-10-28T10:20:50;15.00;;;7.33;;
20110;SDS011;10216;42.658;23.248;2022-10-28T10:28:28;10.18;;;6.70;;
20110;SDS011;10216;42.658;23.248;2022-10-28T10:30:57;11.98;;;8.27;;
20110;SDS011;10216;42.658;23.248;2022-10-28T10:33:34;14.90;;;9.02;;
20110;SDS011;10216;42.658;23.248;2022-10-28T10:36:02;10.63;;;8.45;;
20110;SDS011;10216;42.658;23.248;2022-10-28T10:38:37;9.43;;;6.38;;
20110;SDS011;10216;42.658;23.248;2022-10-28T10:41:10;11.85;;;7.00;;
20110;SDS011;10216;42.658;23.248;2022-10-28T10:43:35;14.30;;;7.18;;
20110;SDS011;10216;42.658;23.248;2022-10-28T10:46:02;14.50;;;8.65;;
20110;SDS011;10216;42.658;23.248;2022-10-28T10:48:30;18.13;;;8.85;;
20110;SDS011;10216;42.658;23.248;2022-10-28T10:51:09;14.52;;;7.85;;
20110;SDS011;10216;42.658;23.248;2022-10-28T10:53:42;8.52;;;6.18;;
20110;SDS011;10216;42.658;23.248;2022-10-28T10:56:12;10.30;;;6.18;;
20110;SDS011;10216;42.658;23.248;2022-10-28T10:58:51;8.43;;;4.85;;
20110;SDS011;10216;42.658;23.248;2022-10-28T11:01:23;6.35;;;4.95;;
20110;SDS011;10216;42.658;23.248;2022-10-28T11:06:27;7.15;;;4.72;;
20110;SDS011;10216;42.658;23.248;2022-10-28T11:09:38;9.05;;;4.80;;
20110;SDS011;10216;42.658;23.248;2022-10-28T11:11:47;7.45;;;4.63;;
20110;SDS011;10216;42.658;23.248;2022-10-28T11:19:37;6.97;;;3.67;;
20110;SDS011;10216;42.658;23.248;2022-10-28T11:30:24;8.70;;;3.60;;
20110;SDS011;10216;42.658;23.248;2022-10-28T11:33:07;7.28;;;3.03;;
20110;SDS011;10216;42.658;23.248;2022-10-28T11:46:19;3.72;;;2.33;;
20110;SDS011;10216;42.658;23.248;2022-10-28T11:51:54;5.25;;;2.00;;
20110;SDS011;10216;42.658;23.248;2022-10-28T11:54:48;2.72;;;2.10;;
20110;SDS011;10216;42.658;23.248;2022-10-28T11:57:15;3.50;;;2.05;;
20110;SDS011;10216;42.658;23.248;2022-10-28T12:13:38;2.08;;;1.88;;
20110;SDS011;10216;42.658;23.248;2022-10-28T12:21:36;3.53;;;2.45;;
20110;SDS011;10216;42.658;23.248;2022-10-28T12:24:05;2.50;;;1.75;;
20110;SDS011;10216;42.658;23.248;2022-10-28T12:26:39;2.78;;;2.20;;
20110;SDS011;10216;42.658;23.248;2022-10-28T12:29:29;4.28;;;2.00;;
20110;SDS011;10216;42.658;23.248;2022-10-28T12:31:59;3.28;;;2.13;;
20110;SDS011;10216;42.658;23.248;2022-10-28T12:34:33;3.50;;;1.80;;
20110;SDS011;10216;42.658;23.248;2022-10-28T12:37:10;4.70;;;2.28;;
20110;SDS011;10216;42.658;23.248;2022-10-28T12:39:42;3.95;;;2.10;;
20110;SDS011;10216;42.658;23.248;2022-10-28T12:42:20;6.72;;;2.20;;
20110;SDS011;10216;42.658;23.248;2022-10-28T12:44:50;5.85;;;2.17;;
20110;SDS011;10216;42.658;23.248;2022-10-28T12:47:23;4.80;;;2.72;;
20110;SDS011;10216;42.658;23.248;2022-10-28T12:52:37;6.05;;;2.90;;
20110;SDS011;10216;42.658;23.248;2022-10-28T12:57:37;3.80;;;2.15;;
20110;SDS011;10216;42.658;23.248;2022-10-28T13:02:50;6.45;;;2.78;;
20110;SDS011;10216;42.658;23.248;2022-10-28T13:05:26;2.35;;;2.15;;
20110;SDS011;10216;42.658;23.248;2022-10-28T13:24:54;4.33;;;2.63;;
20110;SDS011;10216;42.658;23.248;2022-10-28T13:27:22;4.07;;;2.80;;
20110;SDS011;10216;42.658;23.248;2022-10-28T13:29:50;4.60;;;2.57;;
20110;SDS011;10216;42.658;23.248;2022-10-28T13:32:38;8.50;;;2.77;;
20110;SDS011;10216;42.658;23.248;2022-10-28T13:37:46;5.07;;;2.30;;
20110;SDS011;10216;42.658;23.248;2022-10-28T13:40:19;3.80;;;2.43;;
20110;SDS011;10216;42.658;23.248;2022-10-28T13:43:14;8.00;;;3.53;;
20110;SDS011;10216;42.658;23.248;2022-10-28T13:45:43;6.30;;;2.80;;
20110;SDS011;10216;42.658;23.248;2022-10-28T13:58:56;3.33;;;2.70;;
20110;SDS011;10216;42.658;23.248;2022-10-28T14:01:35;4.73;;;2.57;;
20110;SDS011;10216;42.658;23.248;2022-10-28T14:04:26;9.33;;;3.00;;
20110;SDS011;10216;42.658;23.248;2022-10-28T14:09:33;4.80;;;2.90;;
20110;SDS011;10216;42.658;23.248;2022-10-28T14:17:40;4.47;;;2.60;;
20110;SDS011;10216;42.658;23.248;2022-10-28T14:20:25;5.00;;;2.87;;
20110;SDS011;10216;42.658;23.248;2022-10-28T14:22:54;4.23;;;2.77;;
20110;SDS011;10216;42.658;23.248;2022-10-28T14:28:47;3.80;;;2.73;;
20110;SDS011;10216;42.658;23.248;2022-10-28T14:42:03;4.90;;;3.13;;
20110;SDS011;10216;42.658;23.248;2022-10-28T14:50:36;6.57;;;3.50;;
20110;SDS011;10216;42.658;23.248;2022-10-28T14:53:05;5.63;;;3.03;;
20110;SDS011;10216;42.658;23.248;2022-10-28T14:55:37;5.73;;;2.80;;
20110;SDS011;10216;42.658;23.248;2022-10-28T15:00:39;5.93;;;3.13;;
20110;SDS011;10216;42.658;23.248;2022-10-28T15:03:08;4.83;;;2.87;;
20110;SDS011;10216;42.658;23.248;2022-10-28T15:05:35;3.60;;;3.00;;
20110;SDS011;10216;42.658;23.248;2022-10-28T15:08:01;4.57;;;3.13;;
20110;SDS011;10216;42.658;23.248;2022-10-28T15:10:28;6.40;;;3.50;;
20110;SDS011;10216;42.658;23.248;2022-10-28T15:12:56;6.23;;;3.10;;
20110;SDS011;10216;42.658;23.248;2022-10-28T15:17:47;4.70;;;3.07;;
20110;SDS011;10216;42.658;23.248;2022-10-28T15:20:27;3.83;;;3.00;;
20110;SDS011;10216;42.658;23.248;2022-10-28T15:23:11;4.30;;;2.53;;
20110;SDS011;10216;42.658;23.248;2022-10-28T15:25:36;7.83;;;2.83;;
20110;SDS011;10216;42.658;23.248;2022-10-28T15:28:04;6.93;;;3.00;;
20110;SDS011;10216;42.658;23.248;2022-10-28T15:30:29;12.87;;;2.80;;
20110;SDS011;10216;42.658;23.248;2022-10-28T15:33:16;5.20;;;3.10;;
20110;SDS011;10216;42.658;23.248;2022-10-28T15:35:44;3.67;;;2.93;;
20110;SDS011;10216;42.658;23.248;2022-10-28T15:40:45;7.47;;;2.90;;
20110;SDS011;10216;42.658;23.248;2022-10-28T15:43:20;4.27;;;2.50;;
20110;SDS011;10216;42.658;23.248;2022-10-28T15:45:51;26.93;;;3.40;;
20110;SDS011;10216;42.658;23.248;2022-10-28T15:48:20;11.60;;;3.10;;
20110;SDS011;10216;42.658;23.248;2022-10-28T15:51:30;6.10;;;3.10;;
20110;SDS011;10216;42.658;23.248;2022-10-28T15:53:39;6.47;;;3.10;;
20110;SDS011;10216;42.658;23.248;2022-10-28T15:56:25;8.47;;;3.10;;
20110;SDS011;10216;42.658;23.248;2022-10-28T16:01:36;6.93;;;4.13;;
20110;SDS011;10216;42.658;23.248;2022-10-28T16:04:03;6.80;;;3.87;;
20110;SDS011;10216;42.658;23.248;2022-10-28T16:06:30;6.90;;;3.43;;
20110;SDS011;10216;42.658;23.248;2022-10-28T16:09:04;13.93;;;3.87;;
20110;SDS011;10216;42.658;23.248;2022-10-28T16:11:35;9.50;;;3.83;;
20110;SDS011;10216;42.658;23.248;2022-10-28T16:17:04;5.67;;;3.93;;
20110;SDS011;10216;42.658;23.248;2022-10-28T16:19:30;9.30;;;4.43;;
20110;SDS011;10216;42.658;23.248;2022-10-28T16:22:00;13.63;;;5.30;;
20110;SDS011;10216;42.658;23.248;2022-10-28T16:24:26;15.97;;;6.27;;
20110;SDS011;10216;42.658;23.248;2022-10-28T16:26:51;17.87;;;6.53;;
20110;SDS011;10216;42.658;23.248;2022-10-28T16:29:17;13.23;;;5.80;;
20110;SDS011;10216;42.658;23.248;2022-10-28T16:31:42;10.20;;;5.80;;
20110;SDS011;10216;42.658;23.248;2022-10-28T16:34:13;12.83;;;4.97;;
20110;SDS011;10216;42.658;23.248;2022-10-28T16:36:39;9.03;;;4.67;;
20110;SDS011;10216;42.658;23.248;2022-10-28T16:39:10;8.53;;;4.23;;
20110;SDS011;10216;42.658;23.248;2022-10-28T16:41:37;6.03;;;4.00;;
20110;SDS011;10216;42.658;23.248;2022-10-28T16:44:04;5.87;;;3.73;;
20110;SDS011;10216;42.658;23.248;2022-10-28T16:46:33;6.23;;;3.77;;
20110;SDS011;10216;42.658;23.248;2022-10-28T16:48:59;5.17;;;3.40;;
20110;SDS011;10216;42.658;23.248;2022-10-28T16:51:24;8.20;;;4.17;;
20110;SDS011;10216;42.658;23.248;2022-10-28T16:53:49;6.87;;;3.30;;
20110;SDS011;10216;42.658;23.248;2022-10-28T16:56:15;3.80;;;3.40;;
20110;SDS011;10216;42.658;23.248;2022-10-28T16:58:41;5.20;;;3.40;;
20110;SDS011;10216;42.658;23.248;2022-10-28T17:01:07;4.77;;;3.17;;
20110;SDS011;10216;42.658;23.248;2022-10-28T17:03:33;9.07;;;3.10;;
20110;SDS011;10216;42.658;23.248;2022-10-28T17:05:59;6.73;;;3.00;;
20110;SDS011;10216;42.658;23.248;2022-10-28T17:08:24;3.87;;;3.23;;
20110;SDS011;10216;42.658;23.248;2022-10-28T17:10:49;5.33;;;3.00;;
20110;SDS011;10216;42.658;23.248;2022-10-28T17:13:15;12.60;;;2.70;;
20110;SDS011;10216;42.658;23.248;2022-10-28T17:15:41;5.20;;;2.83;;
20110;SDS011;10216;42.658;23.248;2022-10-28T17:18:08;5.83;;;3.03;;
20110;SDS011;10216;42.658;23.248;2022-10-28T17:20:35;6.03;;;3.00;;
20110;SDS011;10216;42.658;23.248;2022-10-28T17:23:02;4.73;;;2.73;;
20110;SDS011;10216;42.658;23.248;2022-10-28T17:25:28;21.37;;;3.20;;
20110;SDS011;10216;42.658;23.248;2022-10-28T17:27:53;4.83;;;3.13;;
20110;SDS011;10216;42.658;23.248;2022-10-28T17:30:19;7.20;;;3.13;;
20110;SDS011;10216;42.658;23.248;2022-10-28T17:32:47;5.43;;;2.63;;
20110;SDS011;10216;42.658;23.248;2022-10-28T17:35:14;4.20;;;3.10;;
20110;SDS011;10216;42.658;23.248;2022-10-28T17:37:39;7.43;;;3.90;;
20110;SDS011;10216;42.658;23.248;2022-10-28T17:40:05;7.40;;;3.57;;
20110;SDS011;10216;42.658;23.248;2022-10-28T17:42:32;5.57;;;2.63;;
20110;SDS011;10216;42.658;23.248;2022-10-28T17:44:58;4.57;;;2.40;;
20110;SDS011;10216;42.658;23.248;2022-10-28T17:47:23;3.87;;;3.07;;
20110;SDS011;10216;42.658;23.248;2022-10-28T17:49:48;4.47;;;2.20;;
20110;SDS011;10216;42.658;23.248;2022-10-28T17:52:14;5.23;;;2.50;;
20110;SDS011;10216;42.658;23.248;2022-10-28T17:54:39;2.80;;;2.37;;
20110;SDS011;10216;42.658;23.248;2022-10-28T17:57:04;4.27;;;2.43;;
20110;SDS011;10216;42.658;23.248;2022-10-28T17:59:30;4.57;;;2.83;;
20110;SDS011;10216;42.658;23.248;2022-10-28T18:01:55;6.10;;;2.70;;
20110;SDS011;10216;42.658;23.248;2022-10-28T18:04:20;5.77;;;2.90;;
20110;SDS011;10216;42.658;23.248;2022-10-28T18:06:51;7.17;;;3.03;;
20110;SDS011;10216;42.658;23.248;2022-10-28T18:09:17;6.17;;;3.03;;